Time;durP1;ratioP1;P1;durP2;ratioP2;P2;SDS_P1;SDS_P2;PMS_P1;PMS_P2;Temp;Humidity;BMP_temperature;BMP_pressure;BME280_temperature;BME280_humidity;BME280_pressure;Samples;Min_cycle;Max_cycle;Signal;HPM_P1;HPM_P2
2021/07/02 00:00:32;;;;;;;;;2.33;2.33;;;;;37.17;10.32;100212.09;144169;591;131020;-73
2021/07/02 00:03:04;;;;;;;;;3.67;3.67;;;;;37.08;10.33;100207.53;144169;581;131016;-74
2021/07/02 00:05:34;;;;;;;;;2.00;2.00;;;;;36.90;9.75;100198.78;144181;637;131023;-70
2021/07/02 00:08:05;;;;;;;;;6.33;4.33;;;;;36.75;9.87;100200.59;144165;578;131020;-69
2021/07/02 00:10:35;;;;;;;;;2.33;2.33;;;;;36.81;10.02;100206.72;144187;590;132010;-70
2021/07/02 00:13:05;;;;;;;;;4.00;4.00;;;;;36.85;10.27;100203.94;144168;564;131907;-73
2021/07/02 00:15:35;;;;;;;;;2.00;2.00;;;;;36.88;10.38;100198.34;144190;598;131012;-74
2021/07/02 00:18:05;;;;;;;;;4.00;4.00;;;;;36.93;10.63;100208.50;144177;575;132010;-75
2021/07/02 00:20:36;;;;;;;;;4.00;3.00;;;;;36.86;10.36;100214.00;144185;627;131021;-73
2021/07/02 00:23:06;;;;;;;;;3.00;3.00;;;;;36.73;11.05;100205.81;144168;579;132907;-74
2021/07/02 00:25:39;;;;;;;;;3.67;3.00;;;;;36.73;10.99;100202.16;144172;592;131020;-73
2021/07/02 00:28:09;;;;;;;;;3.00;3.00;;;;;36.74;11.27;100200.97;144162;610;132907;-70
2021/07/02 00:30:40;;;;;;;;;3.00;3.00;;;;;36.70;11.67;100195.28;144192;594;131022;-72
2021/07/02 00:33:10;;;;;;;;;2.33;2.33;;;;;36.70;11.61;100200.91;144165;582;133020;-69
2021/07/02 00:35:43;;;;;;;;;3.00;3.00;;;;;36.68;11.39;100197.66;144185;622;131026;-70
2021/07/02 00:38:13;;;;;;;;;4.00;4.00;;;;;36.63;11.38;100184.72;144166;570;131016;-70
2021/07/02 00:40:43;;;;;;;;;3.00;2.00;;;;;36.61;11.48;100189.13;144191;604;131022;-69
2021/07/02 00:43:13;;;;;;;;;3.00;2.00;;;;;36.56;10.84;100189.41;144178;622;132908;-75
2021/07/02 00:45:43;;;;;;;;;2.00;2.00;;;;;36.54;11.38;100196.25;144186;572;131020;-73
2021/07/02 00:48:14;;;;;;;;;4.00;4.00;;;;;36.48;11.14;100199.72;144168;630;131907;-67
2021/07/02 00:50:45;;;;;;;;;3.00;3.00;;;;;36.35;11.37;100185.87;144166;566;131023;-70
2021/07/02 00:53:15;;;;;;;;;3.00;3.00;;;;;36.30;11.31;100188.19;144166;585;131907;-66
2021/07/02 00:55:48;;;;;;;;;3.00;3.00;;;;;36.22;11.32;100188.06;144192;585;131020;-71
2021/07/02 00:58:20;;;;;;;;;4.00;4.00;;;;;36.14;10.80;100191.94;144166;582;131017;-73
2021/07/02 01:00:50;;;;;;;;;2.00;2.00;;;;;36.09;10.82;100195.06;144185;595;131020;-75
2021/07/02 01:03:20;;;;;;;;;3.33;3.33;;;;;35.98;10.97;100201.28;144164;576;133020;-73
2021/07/02 01:05:50;;;;;;;;;3.00;3.00;;;;;35.95;11.43;100198.41;144186;566;132010;-71
2021/07/02 01:08:21;;;;;;;;;5.00;5.00;;;;;35.89;11.25;100203.53;144175;580;132906;-72
2021/07/02 01:10:51;;;;;;;;;4.33;3.33;;;;;35.86;11.65;100201.47;144181;603;131021;-74
2021/07/02 01:13:22;;;;;;;;;4.00;4.00;;;;;35.87;11.66;100200.28;144170;594;131907;-71
2021/07/02 01:15:56;;;;;;;;;3.00;2.00;;;;;35.94;11.26;100203.22;144169;598;132012;-73
2021/07/02 01:18:26;;;;;;;;;4.00;3.33;;;;;35.94;11.12;100197.59;144162;606;132009;-75
2021/07/02 01:20:57;;;;;;;;;3.67;3.67;;;;;35.96;10.90;100192.41;144183;595;131020;-80
2021/07/02 01:23:27;;;;;;;;;2.67;2.67;;;;;35.97;10.62;100196.03;144172;620;132020;-71
2021/07/02 01:25:59;;;;;;;;;3.67;3.67;;;;;35.95;10.82;100199.22;144185;601;132010;-71
2021/07/02 01:28:29;;;;;;;;;4.00;4.00;;;;;35.93;10.57;100203.59;144162;704;132014;-72
2021/07/02 01:31:00;;;;;;;;;3.00;3.00;;;;;35.84;10.45;100199.00;144189;641;132008;-73
2021/07/02 01:33:30;;;;;;;;;6.00;5.00;;;;;35.74;10.85;100207.25;144172;607;132010;-71
2021/07/02 01:36:08;;;;;;;;;3.67;3.67;;;;;35.60;11.23;100197.34;144182;564;132010;-73
2021/07/02 01:38:38;;;;;;;;;3.33;3.00;;;;;35.44;11.43;100191.78;144164;597;132907;-76
2021/07/02 01:41:08;;;;;;;;;4.67;4.00;;;;;35.26;11.21;100185.78;144168;580;132013;-74
2021/07/02 01:43:38;;;;;;;;;4.00;4.00;;;;;35.20;11.95;100190.06;144164;590;131906;-72
2021/07/02 01:46:09;;;;;;;;;3.33;3.33;;;;;35.06;11.96;100202.63;144185;601;132008;-72
2021/07/02 01:48:39;;;;;;;;;4.00;4.00;;;;;34.80;12.13;100189.16;144172;573;132907;-74
2021/07/02 01:51:09;;;;;;;;;3.33;3.33;;;;;34.67;12.26;100194.09;144182;565;131021;-70
2021/07/02 01:53:40;;;;;;;;;4.33;4.00;;;;;34.80;12.04;100183.53;144164;582;132018;-71
2021/07/02 01:56:11;;;;;;;;;3.33;3.00;;;;;34.75;12.06;100187.44;144188;681;131022;-71
2021/07/02 01:58:41;;;;;;;;;6.67;6.67;;;;;34.70;12.44;100188.53;144173;570;132012;-74
2021/07/02 02:01:12;;;;;;;;;4.00;4.00;;;;;34.63;12.37;100181.94;144185;623;132012;-71
2021/07/02 02:03:42;;;;;;;;;5.00;5.00;;;;;34.56;12.18;100186.22;144166;565;131907;-75
2021/07/02 02:06:12;;;;;;;;;3.67;3.67;;;;;34.50;12.66;100187.69;144165;610;131020;-76
2021/07/02 02:08:42;;;;;;;;;3.67;3.67;;;;;34.50;12.46;100182.06;144164;581;131907;-75
2021/07/02 02:11:12;;;;;;;;;3.67;3.67;;;;;34.55;12.17;100181.78;144180;603;132012;-70
2021/07/02 02:13:42;;;;;;;;;4.00;4.00;;;;;34.58;12.23;100178.25;144168;660;132012;-70
2021/07/02 02:16:13;;;;;;;;;4.00;4.00;;;;;34.64;12.42;100186.37;144183;593;131020;-73
2021/07/02 02:18:43;;;;;;;;;4.33;4.00;;;;;34.65;12.18;100182.38;144161;598;132014;-73
2021/07/02 02:21:13;;;;;;;;;3.67;3.67;;;;;34.64;12.10;100183.56;144185;636;131020;-69
2021/07/02 02:23:43;;;;;;;;;4.00;4.00;;;;;34.59;12.23;100184.69;144176;641;132012;-74
2021/07/02 02:26:13;;;;;;;;;4.00;4.00;;;;;34.52;12.68;100179.72;144186;608;131020;-69
2021/07/02 02:28:43;;;;;;;;;4.00;4.00;;;;;34.48;12.44;100175.16;144160;576;133012;-75
2021/07/02 02:31:13;;;;;;;;;5.67;4.33;;;;;34.46;12.63;100177.50;144170;600;132010;-75
2021/07/02 02:33:43;;;;;;;;;3.00;3.00;;;;;34.45;12.78;100185.09;144166;569;132907;-70
2021/07/02 02:36:13;;;;;;;;;4.00;4.00;;;;;34.41;13.04;100178.59;144185;570;131020;-73
2021/07/02 02:38:44;;;;;;;;;4.00;3.33;;;;;34.34;12.78;100182.03;144166;617;131907;-77
2021/07/02 02:41:14;;;;;;;;;4.00;4.00;;;;;34.37;12.73;100186.91;144184;609;132011;-68
2021/07/02 02:43:44;;;;;;;;;9.67;8.00;;;;;34.35;12.89;100185.66;144170;593;131907;-69
2021/07/02 02:46:14;;;;;;;;;4.00;3.67;;;;;34.30;13.20;100184.75;144184;608;132010;-71
2021/07/02 02:48:45;;;;;;;;;4.67;4.33;;;;;34.28;12.88;100181.50;144174;599;131907;-70
2021/07/02 02:51:15;;;;;;;;;4.33;4.33;;;;;34.25;12.85;100193.44;144184;590;132010;-72
2021/07/02 02:53:45;;;;;;;;;3.33;3.33;;;;;34.27;13.06;100187.47;144164;600;132012;-72
2021/07/02 02:56:15;;;;;;;;;6.33;6.33;;;;;34.22;12.94;100191.38;144169;570;132010;-73
2021/07/02 02:58:46;;;;;;;;;6.00;6.00;;;;;34.22;13.26;100199.78;144163;593;131906;-71
2021/07/02 03:01:17;;;;;;;;;6.00;6.00;;;;;34.25;13.31;100196.25;144185;588;131020;-75
2021/07/02 03:03:47;;;;;;;;;6.33;6.00;;;;;34.23;13.33;100212.66;144165;633;131907;-72
2021/07/02 03:06:17;;;;;;;;;4.00;3.67;;;;;34.16;12.47;100215.25;144184;669;131012;-74
2021/07/02 03:08:47;;;;;;;;;4.67;4.67;;;;;34.09;13.26;100223.50;144164;633;132012;-73
2021/07/02 03:11:21;;;;;;;;;6.33;6.33;;;;;33.99;13.14;100225.62;144183;578;131998;-69
2021/07/02 03:13:51;;;;;;;;;5.00;4.67;;;;;33.94;13.31;100230.66;144171;625;132018;-69
2021/07/02 03:16:21;;;;;;;;;7.00;6.67;;;;;33.93;13.51;100224.25;144183;644;131022;-69
2021/07/02 03:18:51;;;;;;;;;6.00;6.00;;;;;33.87;13.54;100229.31;144165;617;131020;-70
2021/07/02 03:21:21;;;;;;;;;6.67;6.00;;;;;33.81;13.45;100235.53;144163;611;132012;-69
2021/07/02 03:23:52;;;;;;;;;6.00;5.33;;;;;33.78;13.65;100231.44;144170;627;131018;-70
2021/07/02 03:26:22;;;;;;;;;7.67;7.00;;;;;34.00;13.85;100232.06;144189;564;132012;-68
2021/07/02 03:28:52;;;;;;;;;6.33;6.00;;;;;34.23;13.48;100226.69;144164;597;131907;-69
2021/07/02 03:31:22;;;;;;;;;6.00;6.00;;;;;34.24;13.50;100222.69;144190;592;131011;-71
2021/07/02 03:33:52;;;;;;;;;8.00;6.00;;;;;34.29;13.64;100228.03;144167;594;132013;-67
2021/07/02 03:36:28;;;;;;;;;10.67;7.00;;;;;34.36;13.91;100221.78;144176;658;132020;-67
2021/07/02 03:38:59;;;;;;;;;5.67;5.00;;;;;34.39;13.02;100225.88;144176;621;131907;-66
2021/07/02 03:41:32;;;;;;;;;6.33;5.33;;;;;33.94;14.32;100234.28;144191;672;131020;-69
2021/07/02 03:44:03;;;;;;;;;6.33;6.33;;;;;33.89;13.37;100231.72;144165;578;132020;-67
2021/07/02 03:46:33;;;;;;;;;6.00;6.00;;;;;33.94;13.57;100233.47;144173;624;131020;-68
2021/07/02 03:49:03;;;;;;;;;8.00;8.00;;;;;33.98;14.06;100228.78;144159;606;133010;-67
2021/07/02 03:51:33;;;;;;;;;5.67;5.33;;;;;34.12;14.49;100225.56;144184;603;131020;-68
2021/07/02 03:54:03;;;;;;;;;5.33;4.00;;;;;34.15;13.95;100222.03;144168;644;132907;-68
2021/07/02 03:56:33;;;;;;;;;6.00;5.00;;;;;34.21;14.18;100220.63;144176;597;134010;-65
2021/07/02 03:59:04;;;;;;;;;3.00;3.00;;;;;34.35;14.26;100220.16;144166;624;132012;-66
2021/07/02 04:01:34;;;;;;;;;4.67;3.00;;;;;34.33;14.26;100216.91;144184;564;131022;-68
2021/07/02 04:04:04;;;;;;;;;6.33;6.00;;;;;34.39;14.27;100221.06;144172;602;132907;-69
2021/07/02 04:06:34;;;;;;;;;4.67;4.67;;;;;34.83;14.06;100220.16;144184;592;131022;-69
2021/07/02 04:09:04;;;;;;;;;4.00;3.67;;;;;34.58;13.89;100220.34;144164;570;132010;-76
2021/07/02 04:11:34;;;;;;;;;3.00;3.00;;;;;34.71;14.21;100225.88;144165;644;131021;-71
2021/07/02 04:14:05;;;;;;;;;2.33;2.33;;;;;34.88;14.41;100223.84;144163;570;132014;-67
2021/07/02 04:16:37;;;;;;;;;2.00;2.00;;;;;35.05;14.48;100220.66;144183;598;131020;-71
2021/07/02 04:19:07;;;;;;;;;5.00;4.00;;;;;35.17;14.11;100221.72;144164;564;132021;-69
2021/07/02 04:21:37;;;;;;;;;2.33;2.33;;;;;35.32;14.48;100220.84;144184;595;131020;-72
2021/07/02 04:24:08;;;;;;;;;3.00;3.00;;;;;35.48;14.52;100225.59;144164;681;134020;-71
2021/07/02 04:26:38;;;;;;;;;4.00;4.00;;;;;35.62;14.27;100217.47;144187;595;132011;-69
2021/07/02 04:29:08;;;;;;;;;3.33;3.33;;;;;35.80;13.85;100233.87;144177;569;132020;-72
2021/07/02 04:31:38;;;;;;;;;3.00;3.00;;;;;35.92;14.24;100225.28;144188;565;132008;-69
2021/07/02 04:34:08;;;;;;;;;5.00;4.33;;;;;36.07;14.32;100231.22;144165;614;132014;-70
2021/07/02 04:36:38;;;;;;;;;3.00;3.00;;;;;36.12;13.29;100237.34;144166;627;132010;-68
2021/07/02 04:39:08;;;;;;;;;3.67;3.67;;;;;36.12;13.32;100228.06;144167;623;132907;-69
2021/07/02 04:41:38;;;;;;;;;5.33;5.33;;;;;36.17;13.24;100212.88;144189;594;131023;-71
2021/07/02 04:44:09;;;;;;;;;4.00;4.00;;;;;36.29;13.03;100218.34;144166;617;132014;-71
2021/07/02 04:46:39;;;;;;;;;3.00;3.00;;;;;36.30;13.17;100216.34;144184;611;131022;-72
2021/07/02 04:49:09;;;;;;;;;4.00;4.00;;;;;36.29;12.95;100223.16;144166;598;132019;-70
2021/07/02 04:51:39;;;;;;;;;6.00;6.00;;;;;36.36;13.01;100223.28;144190;564;131012;-73
2021/07/02 04:54:09;;;;;;;;;4.00;4.00;;;;;36.45;13.17;100218.22;144178;588;132012;-72
2021/07/02 04:56:39;;;;;;;;;2.67;2.67;;;;;36.51;12.93;100225.12;144187;564;132010;-69
2021/07/02 04:59:10;;;;;;;;;2.00;2.00;;;;;36.59;13.13;100222.47;144163;572;132907;-70
2021/07/02 05:01:40;;;;;;;;;3.00;3.00;;;;;36.66;12.98;100222.59;144170;641;132010;-68
2021/07/02 05:04:10;;;;;;;;;3.00;2.67;;;;;36.74;12.71;100223.50;144163;566;131021;-72
2021/07/02 05:06:40;;;;;;;;;3.00;3.00;;;;;36.82;12.81;100217.59;144186;565;131020;-70
2021/07/02 05:09:11;;;;;;;;;4.33;3.33;;;;;36.91;12.53;100227.78;144166;578;132015;-70
2021/07/02 05:11:41;;;;;;;;;2.67;2.67;;;;;36.95;12.22;100234.28;144189;624;131023;-70
2021/07/02 05:14:11;;;;;;;;;3.67;3.67;;;;;36.97;12.23;100245.97;144171;582;132012;-68
2021/07/02 05:16:41;;;;;;;;;5.00;5.00;;;;;37.01;12.56;100235.59;144185;575;131021;-70
2021/07/02 05:19:11;;;;;;;;;2.33;2.00;;;;;37.12;12.75;100232.97;144176;575;131907;-73
2021/07/02 05:21:42;;;;;;;;;3.00;2.33;;;;;37.26;12.38;100243.59;144187;581;132020;-69
2021/07/02 05:24:12;;;;;;;;;3.00;2.67;;;;;37.31;12.79;100237.66;144165;660;132907;-68
2021/07/02 05:26:42;;;;;;;;;2.00;2.00;;;;;37.44;11.87;100245.84;144169;581;131021;-70
2021/07/02 05:29:12;;;;;;;;;2.67;2.67;;;;;37.42;11.94;100251.06;144168;569;132907;-69
2021/07/02 05:31:42;;;;;;;;;2.33;2.00;;;;;37.47;11.75;100248.72;144186;591;131020;-67
2021/07/02 05:34:12;;;;;;;;;2.00;2.00;;;;;37.52;11.83;100251.22;144163;566;132002;-72
2021/07/02 05:36:42;;;;;;;;;3.00;3.00;;;;;37.55;11.84;100255.28;144182;604;132010;-67
2021/07/02 05:39:12;;;;;;;;;3.00;3.00;;;;;37.61;11.57;100253.75;144169;615;132907;-68
2021/07/02 05:41:42;;;;;;;;;2.67;2.67;;;;;37.66;11.91;100259.06;144183;599;131023;-69
2021/07/02 05:44:12;;;;;;;;;3.00;3.00;;;;;37.75;12.09;100263.59;144174;593;132907;-68
2021/07/02 05:46:43;;;;;;;;;3.00;3.00;;;;;37.84;11.55;100264.09;144182;594;131020;-69
2021/07/02 05:49:14;;;;;;;;;3.00;3.00;;;;;37.84;12.13;100258.44;144165;587;131016;-70
2021/07/02 05:51:44;;;;;;;;;3.00;3.00;;;;;37.89;11.39;100265.75;144166;589;131998;-67
2021/07/02 05:54:15;;;;;;;;;2.33;2.33;;;;;37.98;11.41;100276.75;144166;576;131907;-72
2021/07/02 05:56:46;;;;;;;;;2.33;2.00;;;;;38.05;11.78;100277.66;144188;587;131021;-67
2021/07/02 05:59:16;;;;;;;;;1.67;1.67;;;;;37.99;11.21;100278.41;144162;661;131907;-68
2021/07/02 06:01:46;;;;;;;;;2.67;2.00;;;;;37.97;11.22;100287.22;144190;617;131020;-71
2021/07/02 06:04:16;;;;;;;;;2.00;2.00;;;;;38.03;11.53;100280.06;144167;598;132907;-69
2021/07/02 06:06:48;;;;;;;;;4.33;3.33;;;;;38.13;11.35;100278.53;144188;645;131022;-72
2021/07/02 06:09:18;;;;;;;;;2.67;2.67;;;;;38.13;11.54;100289.84;144177;578;131907;-70
2021/07/02 06:11:48;;;;;;;;;2.33;2.33;;;;;38.16;11.43;100289.06;144187;579;132010;-70
2021/07/02 06:14:18;;;;;;;;;2.33;2.33;;;;;38.22;11.63;100289.53;144162;587;133012;-69
2021/07/02 06:16:48;;;;;;;;;4.00;3.33;;;;;38.27;11.04;100280.72;144170;571;132008;-71
2021/07/02 06:19:18;;;;;;;;;3.67;3.33;;;;;38.40;11.99;100289.69;144171;587;131907;-68
2021/07/02 06:21:48;;;;;;;;;1.33;1.33;;;;;38.52;11.67;100288.63;144182;566;131022;-72
2021/07/02 06:24:18;;;;;;;;;2.00;2.00;;;;;38.62;11.44;100290.72;144161;610;131907;-72
2021/07/02 06:26:49;;;;;;;;;0.33;0.33;;;;;38.73;10.94;100292.84;144185;599;131020;-72
2021/07/02 06:29:19;;;;;;;;;0.00;0.00;;;;;38.84;11.47;100287.28;144174;592;132016;-74
2021/07/02 06:31:49;;;;;;;;;2.00;2.00;;;;;38.93;11.22;100293.44;144182;650;132012;-74
2021/07/02 06:34:19;;;;;;;;;2.00;2.00;;;;;38.99;12.06;100289.03;144178;659;132010;-74
2021/07/02 06:36:49;;;;;;;;;2.67;1.67;;;;;39.04;10.89;100294.28;144189;665;131012;-73
2021/07/02 06:39:19;;;;;;;;;2.33;2.33;;;;;39.12;11.15;100286.66;144169;654;132020;-74
2021/07/02 06:41:50;;;;;;;;;3.00;3.00;;;;;39.15;11.19;100273.78;144173;655;131020;-76
2021/07/02 06:44:20;;;;;;;;;2.67;2.67;;;;;39.20;12.14;100279.03;144164;576;132907;-76
2021/07/02 06:46:50;;;;;;;;;3.33;3.33;;;;;39.28;11.47;100269.41;144185;592;132010;-75
2021/07/02 06:49:20;;;;;;;;;6.00;5.00;;;;;39.43;10.48;100269.50;144161;592;131997;-75
2021/07/02 06:51:50;;;;;;;;;3.33;3.00;;;;;39.48;10.89;100266.28;144189;636;132010;-75
2021/07/02 06:54:21;;;;;;;;;2.00;2.00;;;;;39.53;10.14;100263.09;144164;578;132020;-76
2021/07/02 06:57:03;;;;;;;;;1.67;1.67;;;;;39.57;10.82;100266.75;144188;619;131020;-74
2021/07/02 06:59:37;;;;;;;;;2.00;2.00;;;;;39.67;10.69;100265.16;144178;574;132020;-73
2021/07/02 07:02:11;;;;;;;;;4.33;4.33;;;;;39.76;10.33;100256.28;144185;612;132010;-75
2021/07/02 07:04:41;;;;;;;;;2.00;2.00;;;;;39.83;11.37;100264.81;144163;611;132014;-75
2021/07/02 07:07:11;;;;;;;;;3.00;3.00;;;;;39.87;10.32;100267.66;144170;581;131020;-79
2021/07/02 07:09:42;;;;;;;;;3.00;3.00;;;;;40.26;10.61;100268.97;144171;593;132012;-76
2021/07/02 07:12:12;;;;;;;;;6.33;5.33;;;;;40.60;10.33;100274.25;144187;585;132012;-75
2021/07/02 07:14:42;;;;;;;;;5.33;5.00;;;;;40.66;10.18;100269.00;144164;595;132907;-75
2021/07/02 07:17:12;;;;;;;;;3.00;3.00;;;;;40.73;10.41;100268.97;144184;564;132012;-74
2021/07/02 07:19:43;;;;;;;;;3.33;3.33;;;;;40.85;10.34;100268.59;144158;604;132907;-75
2021/07/02 07:22:13;;;;;;;;;2.00;2.00;;;;;40.91;9.78;100262.50;144183;613;132012;-75
2021/07/02 07:24:44;;;;;;;;;2.00;2.00;;;;;40.93;9.26;100266.56;144174;565;133012;-75
2021/07/02 07:27:14;;;;;;;;;2.67;2.67;;;;;40.81;9.93;100266.97;144184;631;131023;-74
2021/07/02 07:29:44;;;;;;;;;3.00;2.67;;;;;40.89;9.86;100262.94;144163;603;132016;-76
2021/07/02 07:32:14;;;;;;;;;2.33;2.33;;;;;41.07;9.54;100259.25;144168;625;131022;-75
2021/07/02 07:35:02;;;;;;;;;1.33;1.33;;;;;40.73;9.42;100255.66;144167;633;131020;-75
2021/07/02 07:37:35;;;;;;;;;3.00;3.00;;;;;40.97;9.76;100252.38;144189;594;131020;-75
2021/07/02 07:40:06;;;;;;;;;2.00;2.00;;;;;41.42;9.28;100254.69;144162;566;132014;-74
2021/07/02 07:42:36;;;;;;;;;3.00;3.00;;;;;41.57;8.66;100247.72;144184;572;131022;-75
2021/07/02 07:45:06;;;;;;;;;1.00;1.00;;;;;41.70;8.88;100258.63;144165;624;131907;-76
2021/07/02 07:47:37;;;;;;;;;1.33;1.33;;;;;41.72;9.33;100264.72;144184;586;131021;-74
2021/07/02 07:50:09;;;;;;;;;1.00;1.00;;;;;41.79;9.01;100269.53;144174;740;131907;-75
2021/07/02 07:52:46;;;;;;;;;2.00;2.00;;;;;41.92;9.02;100265.00;144183;758;131020;-75
2021/07/02 07:55:16;;;;;;;;;5.00;5.00;;;;;42.03;8.91;100269.81;144165;575;131907;-75
2021/07/02 07:57:46;;;;;;;;;2.00;2.00;;;;;42.00;9.22;100263.75;144174;646;132010;-75
2021/07/02 08:00:17;;;;;;;;;5.00;5.00;;;;;42.14;8.50;100270.59;144162;636;131907;-75
2021/07/02 08:02:48;;;;;;;;;2.00;2.00;;;;;42.33;8.71;100272.06;144185;564;131013;-76
2021/07/02 08:05:18;;;;;;;;;2.00;2.00;;;;;42.43;7.91;100264.69;144164;577;132907;-75
2021/07/02 08:07:49;;;;;;;;;2.33;2.33;;;;;41.92;8.92;100264.22;144183;657;132010;-75
2021/07/02 08:10:20;;;;;;;;;1.00;1.00;;;;;42.06;8.80;100266.16;144165;611;131907;-73
2021/07/02 08:12:52;;;;;;;;;2.00;2.00;;;;;42.43;8.10;100271.16;144192;579;131020;-72
2021/07/02 08:15:22;;;;;;;;;2.00;2.00;;;;;42.62;8.24;100260.50;144173;569;132014;-74
2021/07/02 08:17:52;;;;;;;;;3.33;2.00;;;;;42.78;8.03;100261.97;144184;610;131023;-73
2021/07/02 08:20:22;;;;;;;;;2.00;2.00;;;;;42.42;8.39;100266.72;144170;629;132016;-71
2021/07/02 08:22:52;;;;;;;;;2.00;2.00;;;;;42.46;8.36;100260.19;144172;565;131020;-76
2021/07/02 08:25:22;;;;;;;;;2.00;2.00;;;;;42.52;8.17;100250.03;144168;670;132012;-75
2021/07/02 08:30:41;;;;;;;;;2.67;2.00;;;;;42.52;8.17;100255.72;144167;571;131018;-79
2021/07/02 08:33:16;;;;;;;;;2.00;2.00;;;;;43.08;7.80;100247.03;144191;589;131020;-76
2021/07/02 08:35:47;;;;;;;;;2.67;2.00;;;;;43.23;7.54;100249.72;144163;573;132907;-76
2021/07/02 08:38:17;;;;;;;;;2.00;2.00;;;;;43.27;7.18;100248.44;144186;686;131021;-77
2021/07/02 08:40:47;;;;;;;;;2.00;2.00;;;;;43.30;7.36;100260.19;144178;594;132908;-77
2021/07/02 08:43:17;;;;;;;;;2.00;2.00;;;;;43.34;7.39;100258.13;144184;602;131020;-77
2021/07/02 08:45:48;;;;;;;;;1.67;1.67;;;;;43.36;7.36;100262.19;144161;588;132014;-77
2021/07/02 08:48:20;;;;;;;;;0.33;0.33;;;;;43.44;7.08;100254.37;144169;728;132008;-76
2021/07/02 08:50:53;;;;;;;;;2.33;2.33;;;;;43.52;7.14;100257.91;144167;632;132018;-77
2021/07/02 08:53:23;;;;;;;;;2.67;2.67;;;;;43.10;7.34;100246.63;144183;582;132012;-77
2021/07/02 08:55:53;;;;;;;;;2.00;1.00;;;;;43.11;7.16;100242.53;144162;564;132012;-77
2021/07/02 08:58:24;;;;;;;;;2.00;2.00;;;;;43.43;7.23;100247.06;144185;598;131034;-76
2021/07/02 09:00:54;;;;;;;;;1.33;1.33;;;;;43.77;7.02;100240.50;144169;587;131017;-78
2021/07/02 09:03:43;;;;;;;;;1.33;1.33;;;;;43.85;7.55;100244.06;144185;669;132010;-78
2021/07/02 09:06:15;;;;;;;;;3.00;3.00;;;;;43.92;7.33;100246.81;144177;716;132907;-77
2021/07/02 09:08:59;;;;;;;;;2.33;2.33;;;;;44.00;7.65;100241.81;144189;715;131022;-79
2021/07/02 09:11:32;;;;;;;;;3.00;3.00;;;;;44.11;7.81;100242.47;144163;595;132012;-79
2021/07/02 09:14:04;;;;;;;;;2.00;2.00;;;;;44.16;7.57;100237.53;144177;571;131012;-77
2021/07/02 09:16:38;;;;;;;;;4.67;3.00;;;;;44.12;7.60;100231.84;144167;574;132906;-78
2021/07/02 09:19:24;;;;;;;;;3.00;3.00;;;;;44.24;7.63;100239.03;144185;573;131020;-78
2021/07/02 09:22:16;;;;;;;;;2.00;2.00;;;;;43.78;7.71;100235.62;144165;612;131907;-78
2021/07/02 09:24:49;;;;;;;;;2.67;2.67;;;;;44.29;7.99;100237.72;144174;590;132012;-78
2021/07/02 09:27:37;;;;;;;;;2.00;2.00;;;;;43.95;7.42;100230.91;144163;571;132014;-77
2021/07/02 09:30:13;;;;;;;;;2.00;2.00;;;;;43.82;8.17;100225.81;144189;582;131021;-79
2021/07/02 09:32:46;;;;;;;;;1.33;1.33;;;;;43.90;7.75;100214.28;144181;577;131478;-77
2021/07/02 09:35:19;;;;;;;;;2.00;2.00;;;;;44.05;7.67;100215.69;144188;571;131020;-77
2021/07/02 09:37:51;;;;;;;;;1.33;1.33;;;;;44.10;7.79;100223.75;144160;590;132013;-79
2021/07/02 09:40:38;;;;;;;;;2.67;2.67;;;;;44.01;7.73;100222.66;144164;624;132008;-77
2021/07/02 09:43:25;;;;;;;;;1.00;0.67;;;;;44.09;7.60;100229.88;144164;600;131907;-79
2021/07/02 09:46:04;;;;;;;;;2.33;2.33;;;;;44.25;7.52;100212.94;144188;620;131021;-77
2021/07/02 09:48:44;;;;;;;;;2.00;2.00;;;;;44.33;7.82;100212.81;144167;608;133020;-78
2021/07/02 09:51:24;;;;;;;;;2.00;2.00;;;;;44.49;7.29;100217.81;144188;589;131022;-78
2021/07/02 09:54:07;;;;;;;;;1.00;1.00;;;;;44.49;7.49;100227.19;144159;581;132018;-78
2021/07/02 09:56:37;;;;;;;;;2.00;2.00;;;;;44.45;7.04;100222.78;144190;616;131020;-78
2021/07/02 09:59:17;;;;;;;;;2.00;2.00;;;;;44.49;7.33;100214.97;144178;579;131907;-78
2021/07/02 10:01:51;;;;;;;;;2.67;2.67;;;;;44.19;7.14;100211.00;144191;597;131021;-77
2021/07/02 10:04:21;;;;;;;;;2.00;2.00;;;;;44.05;7.02;100192.87;144165;597;132012;-78
2021/07/02 10:07:14;;;;;;;;;3.00;3.00;;;;;44.13;7.24;100198.47;144170;595;131020;-78
2021/07/02 10:09:45;;;;;;;;;2.67;2.67;;;;;43.97;7.11;100195.06;144166;598;132021;-79
2021/07/02 10:12:16;;;;;;;;;2.00;2.00;;;;;44.10;7.55;100198.12;144189;701;132010;-78
2021/07/02 10:14:49;;;;;;;;;2.00;2.00;;;;;43.96;7.50;100206.87;144166;569;133018;-77
2021/07/02 10:17:20;;;;;;;;;3.67;3.00;;;;;43.69;7.66;100199.13;144185;599;132012;-78
2021/07/02 10:19:51;;;;;;;;;2.67;1.67;;;;;43.48;7.75;100212.41;144165;586;132907;-78
2021/07/02 10:22:23;;;;;;;;;3.00;3.00;;;;;43.28;7.81;100212.28;144187;566;131020;-78
2021/07/02 10:24:56;;;;;;;;;2.67;2.00;;;;;43.00;7.55;100202.84;144175;600;131906;-77
2021/07/02 10:27:26;;;;;;;;;3.00;2.00;;;;;42.89;7.98;100199.28;144194;563;131020;-78
2021/07/02 10:29:59;;;;;;;;;2.33;2.33;;;;;42.95;8.26;100209.81;144163;570;132907;-79
2021/07/02 10:32:31;;;;;;;;;19.67;17.33;;;;;43.09;8.88;100208.03;144161;594;132010;-79
2021/07/02 10:35:03;;;;;;;;;4.00;4.00;;;;;43.11;9.02;100217.72;144167;592;131906;-77
2021/07/02 10:37:33;;;;;;;;;2.67;2.67;;;;;43.15;8.93;100216.91;144186;583;132012;-79
2021/07/02 10:40:33;;;;;;;;;5.00;4.00;;;;;43.34;8.79;100216.28;144169;579;132907;-78
2021/07/02 10:43:23;;;;;;;;;3.67;3.67;;;;;43.51;8.44;100208.75;144183;603;132012;-78
2021/07/02 10:46:13;;;;;;;;;3.67;3.67;;;;;43.63;9.44;100203.69;144160;564;132014;-79
2021/07/02 10:48:58;;;;;;;;;1.33;1.33;;;;;43.77;8.62;100205.56;144187;569;131020;-75
2021/07/02 10:51:49;;;;;;;;;3.33;3.33;;;;;43.77;7.70;100206.34;144172;565;132012;-79
2021/07/02 10:54:29;;;;;;;;;2.33;2.33;;;;;43.69;8.10;100197.06;144187;593;131021;-80
2021/07/02 10:57:02;;;;;;;;;3.33;3.33;;;;;43.60;8.24;100188.28;144169;583;131020;-78
2021/07/02 11:00:04;;;;;;;;;3.00;3.00;;;;;43.57;7.98;100185.47;144173;590;131021;-79
2021/07/02 11:02:34;;;;;;;;;3.00;3.00;;;;;43.36;7.40;100187.41;144162;569;131906;-77
2021/07/02 11:05:26;;;;;;;;;3.00;3.00;;;;;43.35;7.77;100175.19;144187;597;131022;-77
2021/07/02 11:07:57;;;;;;;;;2.33;2.33;;;;;43.40;7.69;100182.47;144170;616;131014;-77
2021/07/02 11:10:47;;;;;;;;;3.00;3.00;;;;;43.48;7.70;100171.78;144187;573;131020;-76
2021/07/02 11:13:18;;;;;;;;;2.00;2.00;;;;;43.62;7.95;100165.06;144163;590;132907;-78
2021/07/02 11:16:07;;;;;;;;;3.00;2.67;;;;;43.69;7.39;100171.44;144181;571;132012;-76
2021/07/02 11:18:49;;;;;;;;;2.67;2.67;;;;;43.81;7.76;100164.41;144186;585;131910;-77
2021/07/02 11:21:19;;;;;;;;;2.00;2.00;;;;;43.96;7.37;100167.00;144182;622;132010;-76
2021/07/02 11:23:49;;;;;;;;;2.00;2.00;;;;;44.05;6.72;100161.56;144169;581;131910;-78
2021/07/02 11:26:42;;;;;;;;;2.33;2.33;;;;;44.08;6.95;100157.03;144178;575;131010;-77
2021/07/02 11:29:12;;;;;;;;;3.33;2.67;;;;;44.11;6.85;100161.88;144173;583;131909;-78
2021/07/02 11:31:43;;;;;;;;;2.33;2.33;;;;;44.28;6.84;100157.12;144196;571;131027;-79
2021/07/02 11:34:16;;;;;;;;;2.00;2.00;;;;;44.32;7.46;100152.16;144174;575;131909;-79
2021/07/02 11:37:09;;;;;;;;;4.00;4.00;;;;;44.32;7.14;100143.62;144189;617;131021;-77
2021/07/02 11:39:40;;;;;;;;;5.00;5.00;;;;;44.29;7.59;100146.53;144160;566;132910;-78
2021/07/02 11:42:11;;;;;;;;;2.67;2.67;;;;;44.39;7.43;100136.97;144189;670;131020;-77
2021/07/02 11:44:41;;;;;;;;;3.00;3.00;;;;;44.46;7.24;100141.75;144181;564;132908;-77